createdAt,value
2017-04-23T00:00:04.639Z,101181
2017-04-23T00:01:05.252Z,101180
2017-04-23T00:02:04.817Z,101177
2017-04-23T00:03:05.462Z,101178
2017-04-23T00:04:04.971Z,101176
2017-04-23T00:05:05.745Z,101176
2017-04-23T00:06:05.551Z,101178
2017-04-23T00:07:05.016Z,101180
2017-04-23T00:08:05.087Z,101176
2017-04-23T00:09:05.056Z,101174
2017-04-23T00:10:05.136Z,101175
2017-04-23T00:11:05.990Z,101175
2017-04-23T00:12:05.255Z,101177
2017-04-23T00:13:05.904Z,101169
2017-04-23T00:14:06.030Z,101167
2017-04-23T00:15:06.077Z,101174
2017-04-23T00:16:06.140Z,101172
2017-04-23T00:17:06.487Z,101170
2017-04-23T00:18:05.752Z,101167
2017-04-23T00:19:06.334Z,101170
2017-04-23T00:20:06.384Z,101164
2017-04-23T00:21:05.913Z,101169
2017-04-23T00:22:06.456Z,101171
2017-04-23T00:23:06.826Z,101171
2017-04-23T00:24:06.629Z,101172
2017-04-23T00:25:06.117Z,101163
2017-04-23T00:26:06.702Z,101167
2017-04-23T00:27:06.768Z,101165
2017-04-23T00:28:06.865Z,101165
2017-04-23T00:29:07.161Z,101166
2017-04-23T00:30:06.448Z,101160
2017-04-23T00:31:06.513Z,101153
2017-04-23T00:32:06.526Z,101156
2017-04-23T00:33:07.203Z,101158
2017-04-23T00:34:06.712Z,101157
2017-04-23T00:35:07.606Z,101153
2017-04-23T00:36:06.757Z,101155
2017-04-23T00:37:06.825Z,101152
2017-04-23T00:38:07.428Z,101155
2017-04-23T00:39:07.444Z,101158
2017-04-23T00:40:06.948Z,101156
2017-04-23T00:41:07.746Z,101156
2017-04-23T00:42:07.567Z,101153
2017-04-23T00:43:07.055Z,101154
2017-04-23T00:44:07.119Z,101155
2017-04-23T00:45:07.771Z,101153
2017-04-23T00:46:07.259Z,101151
2017-04-23T00:47:07.639Z,101150
2017-04-23T00:48:07.378Z,101151
2017-04-23T00:49:07.489Z,101153
2017-04-23T00:50:07.497Z,101151
2017-04-23T00:51:08.014Z,101152
2017-04-23T00:52:07.581Z,101151
2017-04-23T00:53:08.515Z,101151
2017-04-23T00:54:08.276Z,101150
2017-04-23T00:55:07.740Z,101147
2017-04-23T00:56:08.403Z,101146
2017-04-23T00:57:07.887Z,101152
2017-04-23T00:58:08.003Z,101143
2017-04-23T00:59:08.767Z,101147
2017-04-23T01:00:08.584Z,101147
2017-04-23T01:01:08.627Z,101146
2017-04-23T01:02:08.172Z,101148
2017-04-23T01:03:08.216Z,101142
2017-04-23T01:04:09.044Z,101149
2017-04-23T01:05:09.267Z,101150
2017-04-23T01:06:08.473Z,101141
2017-04-23T01:07:08.489Z,101145
2017-04-23T01:08:09.075Z,101147
2017-04-23T01:09:08.606Z,101148
2017-04-23T01:10:08.681Z,101141
2017-04-23T01:11:08.945Z,101147
2017-04-23T01:12:09.319Z,101148
2017-04-23T01:13:08.809Z,101148
2017-04-23T01:14:08.854Z,101146
2017-04-23T01:15:08.939Z,101145
2017-04-23T01:16:09.485Z,101145
2017-04-23T01:17:09.241Z,101143
2017-04-23T01:18:09.068Z,101149
2017-04-23T01:19:09.115Z,101143
2017-04-23T01:20:09.689Z,101146
2017-04-23T01:21:09.746Z,101150
2017-04-23T01:22:09.307Z,101140
2017-04-23T01:23:10.136Z,101150
2017-04-23T01:24:09.406Z,101145
2017-04-23T01:25:09.936Z,101148
2017-04-23T01:26:09.468Z,101142
2017-04-23T01:27:09.561Z,101149
2017-04-23T01:28:09.572Z,101149
2017-04-23T01:29:09.944Z,101146
2017-04-23T01:30:10.202Z,101137
2017-04-23T01:31:10.248Z,101146
2017-04-23T01:32:09.734Z,101148
2017-04-23T01:33:09.803Z,101149
2017-04-23T01:34:09.906Z,101149
2017-04-23T01:35:10.207Z,101148
2017-04-23T01:36:10.511Z,101147
2017-04-23T01:37:10.056Z,101146
2017-04-23T01:38:10.633Z,101147
2017-04-23T01:39:10.178Z,101139
2017-04-23T01:40:10.188Z,101146
2017-04-23T01:41:10.438Z,101147
2017-04-23T01:42:10.822Z,101149
2017-04-23T01:43:10.342Z,101136
2017-04-23T01:44:10.934Z,101147
2017-04-23T01:45:10.404Z,101147
2017-04-23T01:46:10.495Z,101151
2017-04-23T01:47:11.317Z,101149
2017-04-23T01:48:10.587Z,101148
2017-04-23T01:49:10.608Z,101145
2017-04-23T01:50:11.194Z,101149
2017-04-23T01:51:11.254Z,101138
2017-04-23T01:52:11.329Z,101148
2017-04-23T01:53:11.199Z,101145
2017-04-23T01:54:11.459Z,101144
2017-04-23T01:55:11.431Z,101146
2017-04-23T01:56:10.888Z,101136
2017-04-23T01:57:11.486Z,101139
2017-04-23T01:58:11.017Z,101147
2017-04-23T01:59:11.891Z,101148
2017-04-23T02:00:11.656Z,101145
2017-04-23T02:01:11.121Z,101145
2017-04-23T02:02:11.193Z,101144
2017-04-23T02:03:11.815Z,101147
2017-04-23T02:04:11.342Z,101149
2017-04-23T02:05:12.179Z,101140
2017-04-23T02:06:11.394Z,101145
2017-04-23T02:07:11.441Z,101144
2017-04-23T02:08:12.082Z,101146
2017-04-23T02:09:12.162Z,101137
2017-04-23T02:10:11.676Z,101141
2017-04-23T02:11:12.448Z,101143
2017-04-23T02:12:11.778Z,101143
2017-04-23T02:13:12.358Z,101137
2017-04-23T02:14:11.888Z,101141
2017-04-23T02:15:11.951Z,101143
2017-04-23T02:16:12.567Z,101144
2017-04-23T02:17:12.326Z,101135
2017-04-23T02:18:12.636Z,101140
2017-04-23T02:19:12.193Z,101144
2017-04-23T02:20:12.800Z,101143
2017-04-23T02:21:12.828Z,101145
2017-04-23T02:22:12.358Z,101147
2017-04-23T02:23:13.237Z,101143
2017-04-23T02:24:12.388Z,101144
2017-04-23T02:25:13.015Z,101146
2017-04-23T02:26:12.565Z,101146
2017-04-23T02:27:13.217Z,101148
2017-04-23T02:28:12.777Z,101148
2017-04-23T02:29:13.003Z,101144
2017-04-23T02:30:13.400Z,101146
2017-04-23T02:31:12.878Z,101144
2017-04-23T02:32:13.423Z,101132
2017-04-23T02:33:13.456Z,101140
2017-04-23T02:34:13.020Z,101140
2017-04-23T02:35:13.858Z,101140
2017-04-23T02:36:13.097Z,101141
2017-04-23T02:37:13.158Z,101130
2017-04-23T02:38:13.161Z,101137
2017-04-23T02:39:13.257Z,101138
2017-04-23T02:40:13.272Z,101139
2017-04-23T02:41:13.604Z,101136
2017-04-23T02:42:13.845Z,101134
2017-04-23T02:43:13.899Z,101130
2017-04-23T02:44:13.967Z,101136
2017-04-23T02:45:14.000Z,101135
2017-04-23T02:46:13.598Z,101132
2017-04-23T02:47:13.829Z,101133
2017-04-23T02:48:13.644Z,101134
2017-04-23T02:49:13.780Z,101128
2017-04-23T02:50:13.777Z,101135
2017-04-23T02:51:13.742Z,101133
2017-04-23T02:52:13.876Z,101131
2017-04-23T02:53:14.175Z,101134
2017-04-23T02:54:14.499Z,101135
2017-04-23T02:55:14.545Z,101135
2017-04-23T02:56:14.030Z,101139
2017-04-23T02:57:14.659Z,101139
2017-04-23T02:58:14.214Z,101138
2017-04-23T02:59:14.626Z,101138
2017-04-23T03:00:14.233Z,101143
2017-04-23T03:01:14.890Z,101139
2017-04-23T03:02:14.801Z,101143
2017-04-23T03:03:14.955Z,101143
2017-04-23T03:04:14.495Z,101140
2017-04-23T03:05:14.859Z,101143
2017-04-23T03:06:14.616Z,101140
2017-04-23T03:07:15.244Z,101142
2017-04-23T03:08:15.252Z,101143
2017-04-23T03:09:15.258Z,101138
2017-04-23T03:10:15.288Z,101137
2017-04-23T03:11:15.105Z,101141
2017-04-23T03:12:14.870Z,101146
2017-04-23T03:13:15.433Z,101149
2017-04-23T03:14:15.528Z,101147
2017-04-23T03:15:15.595Z,101150
2017-04-23T03:16:15.671Z,101144
2017-04-23T03:17:16.005Z,101148
2017-04-23T03:18:15.274Z,101144
2017-04-23T03:19:15.884Z,101148
2017-04-23T03:20:15.399Z,101144
2017-04-23T03:21:16.024Z,101134
2017-04-23T03:22:15.576Z,101140
2017-04-23T03:23:16.451Z,101145
2017-04-23T03:24:15.721Z,101146
2017-04-23T03:25:16.270Z,101145
2017-04-23T03:26:15.866Z,101147
2017-04-23T03:27:15.982Z,101135
2017-04-23T03:28:15.938Z,101145
2017-04-23T03:29:16.833Z,101145
2017-04-23T03:30:16.620Z,101137
2017-04-23T03:31:16.661Z,101147
2017-04-23T03:32:16.118Z,101146
2017-04-23T03:33:16.720Z,101146
2017-04-23T03:34:16.277Z,101148
2017-04-23T03:35:16.504Z,101148
2017-04-23T03:36:16.892Z,101151
2017-04-23T03:37:16.940Z,101145
2017-04-23T03:38:16.980Z,101150
2017-04-23T03:39:16.491Z,101147
2017-04-23T03:40:16.540Z,101150
2017-04-23T03:41:16.838Z,101148
2017-04-23T03:42:16.688Z,101151
2017-04-23T03:43:17.221Z,101151
2017-04-23T03:44:16.735Z,101153
2017-04-23T03:45:16.744Z,101152
2017-04-23T03:46:17.324Z,101156
2017-04-23T03:47:17.129Z,101145
2017-04-23T03:48:17.370Z,101156
2017-04-23T03:49:16.901Z,101152
2017-04-23T03:50:17.534Z,101144
2017-04-23T03:51:17.137Z,101150
2017-04-23T03:52:17.747Z,101151
2017-04-23T03:53:17.571Z,101153
2017-04-23T03:54:17.877Z,101150
2017-04-23T03:55:17.930Z,101150
2017-04-23T03:56:17.975Z,101152
2017-04-23T03:57:17.587Z,101152
2017-04-23T03:58:18.107Z,101151
2017-04-23T03:59:18.486Z,101153
2017-04-23T04:00:17.736Z,101153
2017-04-23T04:01:17.704Z,101150
2017-04-23T04:02:18.353Z,101147
2017-04-23T04:03:18.439Z,101154
2017-04-23T04:04:18.482Z,101155
2017-04-23T04:05:18.801Z,101148
2017-04-23T04:06:17.977Z,101154
2017-04-23T04:07:17.995Z,101157
2017-04-23T04:08:18.550Z,101151
2017-04-23T04:09:18.660Z,101153
2017-04-23T04:10:18.727Z,101155
2017-04-23T04:11:18.619Z,101155
2017-04-23T04:12:18.916Z,101157
2017-04-23T04:13:18.991Z,101158
2017-04-23T04:14:19.020Z,101159
2017-04-23T04:15:18.496Z,101163
2017-04-23T04:16:19.163Z,101160
2017-04-23T04:17:18.927Z,101164
2017-04-23T04:18:19.321Z,101161
2017-04-23T04:19:19.324Z,101166
2017-04-23T04:20:19.392Z,101164
2017-04-23T04:21:18.897Z,101162
2017-04-23T04:22:18.928Z,101163
2017-04-23T04:23:19.208Z,101165
2017-04-23T04:24:19.483Z,101156
2017-04-23T04:25:19.540Z,101163
2017-04-23T04:26:19.620Z,101166
2017-04-23T04:27:19.655Z,101164
2017-04-23T04:28:19.200Z,101168
2017-04-23T04:29:20.128Z,101169
2017-04-23T04:30:19.321Z,101169
2017-04-23T04:31:19.348Z,101171
2017-04-23T04:32:19.894Z,101171
2017-04-23T04:33:19.491Z,101170
2017-04-23T04:34:20.022Z,101164
2017-04-23T04:35:20.337Z,101173
2017-04-23T04:36:20.135Z,101174
2017-04-23T04:37:19.630Z,101171
2017-04-23T04:38:19.722Z,101170
2017-04-23T04:39:19.732Z,101171
2017-04-23T04:40:20.317Z,101171
2017-04-23T04:41:20.087Z,101168
2017-04-23T04:42:20.380Z,101176
2017-04-23T04:43:20.432Z,101179
2017-04-23T04:44:19.863Z,101172
2017-04-23T04:45:20.528Z,101175
2017-04-23T04:46:20.102Z,101177
2017-04-23T04:47:20.386Z,101177
2017-04-23T04:48:20.115Z,101179
2017-04-23T04:49:20.632Z,101178
2017-04-23T04:50:20.732Z,101177
2017-04-23T04:51:20.287Z,101179
2017-04-23T04:52:20.790Z,101177
2017-04-23T04:53:20.660Z,101178
2017-04-23T04:54:20.970Z,101172
2017-04-23T04:55:20.477Z,101182
2017-04-23T04:56:20.564Z,101181
2017-04-23T04:57:21.208Z,101185
2017-04-23T04:58:20.724Z,101186
2017-04-23T04:59:21.604Z,101182
2017-04-23T05:00:20.785Z,101188
2017-04-23T05:01:20.898Z,101188
2017-04-23T05:02:20.907Z,101176
2017-04-23T05:03:20.995Z,101182
2017-04-23T05:04:21.578Z,101184
2017-04-23T05:05:21.910Z,101181
2017-04-23T05:06:21.111Z,101181
2017-04-23T05:07:21.219Z,101183
2017-04-23T05:08:21.269Z,101183
2017-04-23T05:09:21.877Z,101184
2017-04-23T05:10:21.419Z,101177
2017-04-23T05:11:21.718Z,101183
2017-04-23T05:12:21.458Z,101180
2017-04-23T05:13:21.483Z,101187
2017-04-23T05:14:21.519Z,101180
2017-04-23T05:15:22.136Z,101183
2017-04-23T05:16:22.229Z,101185
2017-04-23T05:17:22.558Z,101186
2017-04-23T05:18:21.884Z,101180
2017-04-23T05:19:22.394Z,101189
2017-04-23T05:20:22.443Z,101191
2017-04-23T05:21:22.447Z,101195
2017-04-23T05:22:22.014Z,101196
2017-04-23T05:23:22.373Z,101193
2017-04-23T05:24:22.716Z,101197
2017-04-23T05:25:22.328Z,101196
2017-04-23T05:26:22.819Z,101195
2017-04-23T05:27:22.821Z,101197
2017-04-23T05:28:22.954Z,101193
2017-04-23T05:29:23.364Z,101198
2017-04-23T05:30:23.125Z,101195
2017-04-23T05:31:23.160Z,101194
2017-04-23T05:32:22.616Z,101199
2017-04-23T05:33:23.234Z,101199
2017-04-23T05:34:23.256Z,101190
2017-04-23T05:35:23.605Z,101197
2017-04-23T05:36:22.795Z,101203
2017-04-23T05:37:23.405Z,101204
2017-04-23T05:38:22.886Z,101200
2017-04-23T05:39:23.507Z,101203
2017-04-23T05:40:23.065Z,101207
2017-04-23T05:41:23.288Z,101206
2017-04-23T05:42:23.124Z,101206
2017-04-23T05:43:23.161Z,101208
2017-04-23T05:44:23.699Z,101209
2017-04-23T05:45:23.223Z,101209
2017-04-23T05:46:23.179Z,101209
2017-04-23T05:47:23.585Z,101209
2017-04-23T05:48:23.939Z,101211
2017-04-23T05:49:23.948Z,101217
2017-04-23T05:50:23.469Z,101216
2017-04-23T05:51:23.524Z,101216
2017-04-23T05:52:24.055Z,101213
2017-04-23T05:53:23.849Z,101214
2017-04-23T05:54:24.201Z,101215
2017-04-23T05:55:23.659Z,101219
2017-04-23T05:56:24.268Z,101218
2017-04-23T05:57:23.817Z,101220
2017-04-23T05:58:24.242Z,101217
2017-04-23T05:59:23.977Z,101220
2017-04-23T06:00:24.565Z,101220
2017-04-23T06:01:24.029Z,101219
2017-04-23T06:02:24.157Z,101221
2017-04-23T06:03:24.775Z,101221
2017-04-23T06:04:25.106Z,101228
2017-04-23T06:05:24.318Z,101226
2017-04-23T06:06:24.914Z,101225
2017-04-23T06:07:24.917Z,101229
2017-04-23T06:08:24.413Z,101229
2017-04-23T06:09:24.471Z,101229
2017-04-23T06:10:25.372Z,101226
2017-04-23T06:11:24.565Z,101230
2017-04-23T06:12:24.599Z,101234
2017-04-23T06:13:24.724Z,101233
2017-04-23T06:14:25.333Z,101230
2017-04-23T06:15:25.353Z,101233
2017-04-23T06:16:25.630Z,101226
2017-04-23T06:17:25.501Z,101236
2017-04-23T06:18:25.064Z,101233
2017-04-23T06:19:25.628Z,101234
2017-04-23T06:20:25.619Z,101232
2017-04-23T06:21:25.714Z,101232
2017-04-23T06:22:26.032Z,101235
2017-04-23T06:23:25.764Z,101238
2017-04-23T06:24:25.769Z,101236
2017-04-23T06:25:25.778Z,101234
2017-04-23T06:26:25.342Z,101238
2017-04-23T06:27:25.350Z,101237
2017-04-23T06:28:25.747Z,101238
2017-04-23T06:29:25.476Z,101236
2017-04-23T06:30:25.570Z,101232
2017-04-23T06:31:26.146Z,101234
2017-04-23T06:32:25.572Z,101235
2017-04-23T06:33:25.630Z,101233
2017-04-23T06:34:26.475Z,101238
2017-04-23T06:35:26.179Z,101238
2017-04-23T06:36:26.234Z,101237
2017-04-23T06:37:25.780Z,101238
2017-04-23T06:38:25.740Z,101232
2017-04-23T06:39:25.831Z,101228
2017-04-23T06:40:26.772Z,101245
2017-04-23T06:41:26.011Z,101231
2017-04-23T06:42:26.633Z,101230
2017-04-23T06:43:26.638Z,101235
2017-04-23T06:44:26.705Z,101245
2017-04-23T06:45:26.189Z,101241
2017-04-23T06:46:26.419Z,101242
2017-04-23T06:47:26.263Z,101242
2017-04-23T06:48:26.281Z,101239
2017-04-23T06:49:26.233Z,101241
2017-04-23T06:50:26.903Z,101231
2017-04-23T06:51:26.941Z,101234
2017-04-23T06:52:27.290Z,101240
2017-04-23T06:53:26.530Z,101244
2017-04-23T06:54:27.092Z,101237
2017-04-23T06:55:27.148Z,101231
2017-04-23T06:56:27.161Z,101245
2017-04-23T06:57:26.711Z,101242
2017-04-23T06:58:27.057Z,101238
2017-04-23T06:59:26.882Z,101237
2017-04-23T07:00:26.894Z,101240
2017-04-23T07:01:27.394Z,101245
2017-04-23T07:02:26.877Z,101241
2017-04-23T07:03:27.521Z,101240
2017-04-23T07:04:27.213Z,101233
2017-04-23T07:05:27.066Z,101245
2017-04-23T07:06:27.673Z,101242
2017-04-23T07:07:27.158Z,101242
2017-04-23T07:08:27.748Z,101244
2017-04-23T07:09:27.823Z,101237
2017-04-23T07:10:27.645Z,101243
2017-04-23T07:11:27.864Z,101246
2017-04-23T07:12:27.381Z,101247
2017-04-23T07:13:27.517Z,101245
2017-04-23T07:14:28.045Z,101239
2017-04-23T07:15:27.496Z,101240
2017-04-23T07:16:27.846Z,101250
2017-04-23T07:17:28.183Z,101250
2017-04-23T07:18:28.221Z,101248
2017-04-23T07:19:27.766Z,101248
2017-04-23T07:20:28.307Z,101245
2017-04-23T07:21:28.404Z,101254
2017-04-23T07:22:28.777Z,101253
2017-04-23T07:23:28.587Z,101254
2017-04-23T07:24:28.117Z,101248
2017-04-23T07:25:28.095Z,101246
2017-04-23T07:26:28.156Z,101252
2017-04-23T07:27:28.185Z,101253
2017-04-23T07:28:28.575Z,101257
2017-04-23T07:29:28.353Z,101257
2017-04-23T07:30:29.015Z,101251
2017-04-23T07:31:29.061Z,101254
2017-04-23T07:32:28.574Z,101254
2017-04-23T07:33:28.609Z,101249
2017-04-23T07:34:29.502Z,101249
2017-04-23T07:35:28.683Z,101248
2017-04-23T07:36:29.326Z,101254
2017-04-23T07:37:28.855Z,101251
2017-04-23T07:38:29.479Z,101254
2017-04-23T07:39:29.461Z,101249
2017-04-23T07:40:29.813Z,101251
2017-04-23T07:41:29.736Z,101245
2017-04-23T07:42:29.747Z,101239
2017-04-23T07:43:29.253Z,101245
2017-04-23T07:44:29.323Z,101240
2017-04-23T07:45:29.952Z,101248
2017-04-23T07:46:30.223Z,101250
2017-04-23T07:47:29.434Z,101250
2017-04-23T07:48:29.502Z,101256
2017-04-23T07:49:29.517Z,101249
2017-04-23T07:50:29.493Z,101254
2017-04-23T07:51:29.501Z,101256
2017-04-23T07:52:29.814Z,101255
2017-04-23T07:53:30.169Z,101251
2017-04-23T07:54:30.211Z,101254
2017-04-23T07:55:29.705Z,101246
2017-04-23T07:56:30.316Z,101248
2017-04-23T07:57:29.873Z,101248
2017-04-23T07:58:30.016Z,101248
2017-04-23T07:59:30.603Z,101242
2017-04-23T08:00:30.107Z,101247
2017-04-23T08:01:30.733Z,101238
2017-04-23T08:02:30.796Z,101241
2017-04-23T08:03:30.858Z,101241
2017-04-23T08:04:30.278Z,101239
2017-04-23T08:05:30.809Z,101242
2017-04-23T08:06:30.274Z,101242
2017-04-23T08:07:30.387Z,101248
2017-04-23T08:08:30.360Z,101250
2017-04-23T08:09:30.383Z,101249
2017-04-23T08:10:30.512Z,101242
2017-04-23T08:11:30.587Z,101245
2017-04-23T08:12:30.674Z,101239
2017-04-23T08:13:31.262Z,101243
2017-04-23T08:14:31.362Z,101239
2017-04-23T08:15:31.210Z,101240
2017-04-23T08:16:31.429Z,101246
2017-04-23T08:17:31.503Z,101243
2017-04-23T08:18:31.002Z,101244
2017-04-23T08:19:31.672Z,101238
2017-04-23T08:20:31.730Z,101241
2017-04-23T08:21:31.541Z,101237
2017-04-23T08:22:31.321Z,101237
2017-04-23T08:23:31.926Z,101246
2017-04-23T08:24:31.955Z,101244
2017-04-23T08:25:31.566Z,101236
2017-04-23T08:26:32.173Z,101248
2017-04-23T08:27:32.543Z,101245
2017-04-23T08:28:32.296Z,101238
2017-04-23T08:29:32.330Z,101235
2017-04-23T08:30:31.749Z,101235
2017-04-23T08:31:31.842Z,101234
2017-04-23T08:32:32.451Z,101238
2017-04-23T08:33:32.781Z,101235
2017-04-23T08:34:32.000Z,101237
2017-04-23T08:35:32.114Z,101232
2017-04-23T08:36:32.649Z,101240
2017-04-23T08:37:32.707Z,101245
2017-04-23T08:38:32.733Z,101244
2017-04-23T08:39:33.073Z,101247
2017-04-23T08:40:32.388Z,101243
2017-04-23T08:41:32.909Z,101244
2017-04-23T08:42:32.910Z,101240
2017-04-23T08:43:32.466Z,101241
2017-04-23T08:44:32.997Z,101246
2017-04-23T08:45:33.299Z,101248
2017-04-23T08:46:32.536Z,101244
2017-04-23T08:47:32.564Z,101247
2017-04-23T08:48:32.583Z,101249
2017-04-23T08:49:32.540Z,101244
2017-04-23T08:50:33.167Z,101245
2017-04-23T08:51:33.528Z,101238
2017-04-23T08:52:33.304Z,101240
2017-04-23T08:53:32.825Z,101256
2017-04-23T08:54:32.850Z,101248
2017-04-23T08:55:32.885Z,101255
2017-04-23T08:56:33.004Z,101256
2017-04-23T08:57:33.953Z,101258
2017-04-23T08:58:33.132Z,101255
2017-04-23T08:59:33.174Z,101253
2017-04-23T09:00:33.191Z,101256
2017-04-23T09:01:33.789Z,101252
2017-04-23T09:02:33.339Z,101253
2017-04-23T09:03:34.145Z,101253
2017-04-23T09:04:33.912Z,101256
2017-04-23T09:05:33.444Z,101251
2017-04-23T09:06:33.979Z,101245
2017-04-23T09:07:33.530Z,101248
2017-04-23T09:08:34.124Z,101253
2017-04-23T09:09:33.954Z,101255
2017-04-23T09:10:34.312Z,101257
2017-04-23T09:11:34.416Z,101258
2017-04-23T09:12:33.952Z,101257
2017-04-23T09:13:33.991Z,101248
2017-04-23T09:14:34.526Z,101252
2017-04-23T09:15:34.288Z,101258
2017-04-23T09:16:34.121Z,101255
2017-04-23T09:17:34.744Z,101254
2017-04-23T09:18:34.777Z,101248
2017-04-23T09:19:34.830Z,101254
2017-04-23T09:20:34.893Z,101251
2017-04-23T09:21:35.115Z,101252
2017-04-23T09:22:34.358Z,101240
2017-04-23T09:23:34.487Z,101244
2017-04-23T09:24:34.558Z,101242
2017-04-23T09:25:35.159Z,101244
2017-04-23T09:26:35.189Z,101233
2017-04-23T09:27:35.500Z,101248
2017-04-23T09:28:35.241Z,101247
2017-04-23T09:29:35.286Z,101250
2017-04-23T09:30:35.403Z,101252
2017-04-23T09:31:34.904Z,101252
2017-04-23T09:32:34.933Z,101256
2017-04-23T09:33:35.841Z,101244
2017-04-23T09:34:35.058Z,101254
2017-04-23T09:35:35.074Z,101252
2017-04-23T09:36:35.194Z,101251
2017-04-23T09:37:35.227Z,101253
2017-04-23T09:38:35.726Z,101248
2017-04-23T09:39:36.019Z,101255
2017-04-23T09:40:35.791Z,101258
2017-04-23T09:41:35.337Z,101256
2017-04-23T09:42:35.405Z,101252
2017-04-23T09:43:35.482Z,101254
2017-04-23T09:44:35.473Z,101247
2017-04-23T09:45:36.410Z,101251
2017-04-23T09:46:36.149Z,101249
2017-04-23T09:47:35.674Z,101256
2017-04-23T09:48:35.701Z,101256
2017-04-23T09:49:36.295Z,101249
2017-04-23T09:50:36.308Z,101251
2017-04-23T09:51:36.108Z,101251
2017-04-23T09:52:35.884Z,101253
2017-04-23T09:53:36.435Z,101247
2017-04-23T09:54:35.911Z,101255
2017-04-23T09:55:35.970Z,101253
2017-04-23T09:56:35.989Z,101249
2017-04-23T09:57:36.295Z,101238
2017-04-23T09:58:36.147Z,101245
2017-04-23T09:59:36.185Z,101241
2017-04-23T10:00:36.760Z,101248
2017-04-23T10:01:36.276Z,101246
2017-04-23T10:02:36.852Z,101248
2017-04-23T10:03:36.673Z,101250
2017-04-23T10:04:36.483Z,101251
2017-04-23T10:05:36.542Z,101244
2017-04-23T10:06:36.560Z,101248
2017-04-23T10:07:37.097Z,101247
2017-04-23T10:08:36.617Z,101250
2017-04-23T10:09:37.456Z,101248
2017-04-23T10:10:36.782Z,101247
2017-04-23T10:11:36.783Z,101244
2017-04-23T10:12:36.847Z,101241
2017-04-23T10:13:37.428Z,101242
2017-04-23T10:14:36.975Z,101246
2017-04-23T10:15:37.238Z,101244
2017-04-23T10:16:37.608Z,101252
2017-04-23T10:17:37.130Z,101245
2017-04-23T10:18:37.197Z,101247
2017-04-23T10:19:37.744Z,101243
2017-04-23T10:20:37.791Z,101241
2017-04-23T10:21:38.126Z,101240
2017-04-23T10:22:37.376Z,101239
2017-04-23T10:23:37.341Z,101238
2017-04-23T10:24:37.485Z,101250
2017-04-23T10:25:38.098Z,101243
2017-04-23T10:26:37.588Z,101243
2017-04-23T10:27:37.920Z,101243
2017-04-23T10:28:38.211Z,101241
2017-04-23T10:29:37.731Z,101239
2017-04-23T10:30:37.852Z,101241
2017-04-23T10:31:38.359Z,101238
2017-04-23T10:32:37.920Z,101233
2017-04-23T10:33:38.842Z,101238
2017-04-23T10:34:38.098Z,101230
2017-04-23T10:35:38.707Z,101233
2017-04-23T10:36:38.217Z,101234
2017-04-23T10:37:38.234Z,101229
2017-04-23T10:38:38.862Z,101233
2017-04-23T10:47:41.612Z,101226
2017-04-23T10:48:40.778Z,101227
2017-04-23T10:49:40.803Z,101226
2017-04-23T10:50:41.461Z,101222
2017-04-23T10:51:40.882Z,101222
2017-04-23T10:52:41.028Z,101229
2017-04-23T10:53:41.796Z,101218
2017-04-23T10:54:40.998Z,101214
2017-04-23T10:55:41.060Z,101216
2017-04-23T10:56:41.720Z,101215
2017-04-23T10:57:41.762Z,101213
2017-04-23T10:58:41.723Z,101216
2017-04-23T10:59:42.101Z,101223
2017-04-23T11:00:41.366Z,101221
2017-04-23T11:01:41.395Z,101223
2017-04-23T11:02:41.978Z,101210
2017-04-23T11:03:41.455Z,101218
2017-04-23T11:04:42.135Z,101221
2017-04-23T11:05:41.890Z,101209
2017-04-23T11:06:41.751Z,101209
2017-04-23T11:07:42.349Z,101211
2017-04-23T11:08:41.860Z,101218
2017-04-23T11:09:41.910Z,101218
2017-04-23T11:10:42.432Z,101214
2017-04-23T11:11:42.766Z,101215
2017-04-23T11:12:41.993Z,101217
2017-04-23T11:13:42.091Z,101213
2017-04-23T11:14:42.615Z,101212
2017-04-23T11:15:42.166Z,101214
2017-04-23T11:16:42.133Z,101206
2017-04-23T11:17:42.412Z,101217
2017-04-23T11:18:42.784Z,101211
2017-04-23T11:19:42.796Z,101218
2017-04-23T11:20:42.311Z,101211
2017-04-23T11:21:42.819Z,101215
2017-04-23T11:22:42.314Z,101221
2017-04-23T11:23:43.183Z,101220
2017-04-23T11:24:42.442Z,101211
2017-04-23T11:25:43.081Z,101218
2017-04-23T11:26:42.608Z,101211
2017-04-23T11:27:43.173Z,101215
2017-04-23T11:28:43.190Z,101211
2017-04-23T11:29:43.561Z,101215
2017-04-23T11:30:43.321Z,101217
2017-04-23T11:31:42.831Z,101213
2017-04-23T11:32:42.896Z,101208
2017-04-23T11:33:42.930Z,101214
2017-04-23T11:34:43.062Z,101222
2017-04-23T11:35:43.356Z,101237
2017-04-23T11:36:43.168Z,101226
2017-04-23T11:37:43.711Z,101241
2017-04-23T11:38:43.749Z,101246
2017-04-23T11:39:43.829Z,101249
2017-04-23T11:40:43.806Z,101258
2017-04-23T11:41:44.147Z,101258
2017-04-23T11:42:43.976Z,101252
2017-04-23T11:43:43.968Z,101259
2017-04-23T11:44:43.933Z,101266
2017-04-23T11:45:44.043Z,101267
2017-04-23T11:46:44.025Z,101271
2017-04-23T11:47:43.898Z,101273
2017-04-23T11:48:44.117Z,101272
2017-04-23T11:49:44.226Z,101275
2017-04-23T11:50:43.714Z,101275
2017-04-23T11:51:44.304Z,101276
2017-04-23T11:52:44.277Z,101277
2017-04-23T11:53:44.652Z,101280
2017-04-23T11:54:43.945Z,101277
2017-04-23T11:55:44.522Z,101274
2017-04-23T11:56:44.494Z,101275
2017-04-23T11:57:44.120Z,101272
2017-04-23T11:58:44.659Z,101260
2017-04-23T11:59:44.487Z,101271
2017-04-23T12:00:44.777Z,101269
2017-04-23T12:01:44.318Z,101266
2017-04-23T12:02:44.284Z,101268
2017-04-23T12:03:44.929Z,101273
2017-04-23T12:04:44.995Z,101267
2017-04-23T12:05:45.431Z,101270
2017-04-23T12:06:44.591Z,101264
2017-04-23T12:07:45.137Z,101255
2017-04-23T12:08:44.672Z,101256
2017-04-23T12:09:45.272Z,101257
2017-04-23T12:10:44.737Z,101256
2017-04-23T12:11:45.071Z,101250
2017-04-23T12:12:44.853Z,101252
2017-04-23T12:13:45.470Z,101248
2017-04-23T12:14:45.535Z,101246
2017-04-23T12:15:45.600Z,101252
2017-04-23T12:16:45.622Z,101255
2017-04-23T12:17:45.914Z,101249
2017-04-23T12:18:45.646Z,101253
2017-04-23T12:19:45.750Z,101245
2017-04-23T12:20:45.234Z,101248
2017-04-23T12:21:45.904Z,101246
2017-04-23T12:22:45.950Z,101244
2017-04-23T12:23:46.228Z,101245
2017-04-23T12:24:46.093Z,101243
2017-04-23T12:25:46.163Z,101247
2017-04-23T12:26:45.717Z,101241
2017-04-23T12:27:45.775Z,101238
2017-04-23T12:28:46.778Z,101230
2017-04-23T12:29:45.903Z,101230
2017-04-23T12:30:45.934Z,101236
2017-04-23T12:31:46.510Z,101229
2017-04-23T12:32:46.563Z,101222
2017-04-23T12:33:46.135Z,101229
2017-04-23T12:34:46.930Z,101225
2017-04-23T12:35:46.646Z,101221
2017-04-23T12:36:46.723Z,101223